Time;durP1;ratioP1;P1;durP2;ratioP2;P2;SDS_P1;SDS_P2;PMS_P1;PMS_P2;Temp;Humidity;BMP_temperature;BMP_pressure;BME280_temperature;BME280_humidity;BME280_pressure;Samples;Min_cycle;Max_cycle;Signal;HPM_P1;HPM_P2
2021/08/18 00:00:23;;;;;;;6.37;5.00;;;24.60;50.90;;;;;;6201278;23;20144;-83
2021/08/18 00:02:48;;;;;;;6.00;4.97;;;24.60;50.90;;;;;;6175616;23;20159;-83
2021/08/18 00:05:15;;;;;;;5.90;4.47;;;24.60;50.90;;;;;;6201394;23;20171;-83
2021/08/18 00:07:42;;;;;;;5.40;4.70;;;24.60;50.90;;;;;;6175555;23;20465;-83
2021/08/18 00:10:10;;;;;;;4.73;3.83;;;24.60;51.00;;;;;;6175142;23;20434;-83
2021/08/18 00:12:36;;;;;;;6.33;5.13;;;24.60;51.00;;;;;;6173761;23;20419;-83
2021/08/18 00:15:05;;;;;;;4.93;4.47;;;24.60;51.10;;;;;;6175375;23;20411;-83
2021/08/18 00:17:31;;;;;;;6.50;4.73;;;24.60;51.10;;;;;;6201890;23;20164;-83
2021/08/18 00:19:57;;;;;;;6.03;4.37;;;24.60;51.00;;;;;;6201987;23;20371;-83
2021/08/18 00:22:23;;;;;;;6.77;5.63;;;24.60;51.00;;;;;;6174538;23;20387;-83
2021/08/18 00:24:48;;;;;;;5.93;4.60;;;24.60;51.10;;;;;;6174327;23;20383;-83
2021/08/18 00:27:14;;;;;;;6.97;5.50;;;24.50;51.00;;;;;;6201025;23;20159;-83
2021/08/18 00:29:40;;;;;;;7.20;4.60;;;24.50;51.00;;;;;;6201913;23;20641;-83
2021/08/18 00:32:07;;;;;;;6.80;5.10;;;24.60;51.10;;;;;;6201490;23;20171;-83
2021/08/18 00:34:33;;;;;;;6.50;5.00;;;24.60;51.20;;;;;;6175166;23;20751;-83
2021/08/18 00:36:59;;;;;;;5.43;4.50;;;24.50;51.10;;;;;;6201470;23;20425;-83
2021/08/18 00:39:25;;;;;;;5.43;4.70;;;24.60;51.20;;;;;;6201614;23;20151;-83
2021/08/18 00:41:52;;;;;;;6.90;5.47;;;24.50;51.20;;;;;;6173981;23;20493;-83
2021/08/18 00:44:18;;;;;;;7.07;5.43;;;24.60;51.20;;;;;;6175600;23;20402;-83
2021/08/18 00:46:48;;;;;;;5.43;4.80;;;24.50;51.20;;;;;;6201631;23;20450;-83
2021/08/18 00:49:18;;;;;;;4.20;3.80;;;24.60;51.30;;;;;;6201175;23;20727;-83
2021/08/18 00:51:43;;;;;;;5.90;5.13;;;24.50;51.20;;;;;;6174410;23;20458;-83
2021/08/18 00:54:09;;;;;;;5.90;4.83;;;24.50;51.30;;;;;;6202178;23;20372;-83
2021/08/18 00:56:35;;;;;;;5.13;4.60;;;24.50;51.30;;;;;;6174872;23;20152;-83
2021/08/18 00:59:01;;;;;;;5.30;4.73;;;24.50;51.30;;;;;;6200414;23;20398;-83
2021/08/18 01:01:27;;;;;;;6.80;5.30;;;24.50;51.30;;;;;;6175102;23;20152;-83
2021/08/18 01:03:54;;;;;;;5.47;4.73;;;24.50;51.30;;;;;;6190798;23;20171;-83
2021/08/18 01:06:20;;;;;;;6.97;4.80;;;24.50;51.40;;;;;;6264159;23;20166;-83
2021/08/18 01:08:45;;;;;;;5.10;4.40;;;24.50;51.30;;;;;;6264053;23;20379;-83
2021/08/18 01:11:11;;;;;;;6.57;5.20;;;24.50;51.30;;;;;;6238290;23;20504;-83
2021/08/18 01:13:44;;;;;;;5.73;4.90;;;24.50;51.40;;;;;;6213234;23;20155;-83
2021/08/18 01:16:12;;;;;;;6.17;4.93;;;24.50;51.30;;;;;;6239258;23;20351;-83
2021/08/18 01:18:39;;;;;;;6.20;5.00;;;24.50;51.40;;;;;;6238664;23;20402;-83
2021/08/18 01:21:07;;;;;;;6.30;4.47;;;24.50;51.50;;;;;;6238953;23;20379;-83
2021/08/18 01:23:34;;;;;;;5.97;4.70;;;24.50;51.40;;;;;;6239645;23;20374;-83
2021/08/18 01:26:00;;;;;;;5.93;4.87;;;24.50;51.50;;;;;;6239501;23;20379;-83
2021/08/18 01:28:28;;;;;;;6.20;4.57;;;24.50;51.50;;;;;;6238269;23;20378;-83
2021/08/18 01:30:54;;;;;;;5.77;5.07;;;24.50;51.50;;;;;;6212367;23;20155;-83
2021/08/18 01:33:23;;;;;;;6.17;4.53;;;24.50;51.50;;;;;;6239200;23;20860;-83
2021/08/18 01:35:51;;;;;;;6.70;5.20;;;24.50;51.60;;;;;;6238206;23;20378;-83
2021/08/18 01:38:20;;;;;;;6.47;4.80;;;24.50;51.50;;;;;;6238479;23;20398;-83
2021/08/18 01:40:51;;;;;;;6.53;4.60;;;24.50;51.50;;;;;;6238461;23;20354;-83
2021/08/18 01:43:18;;;;;;;4.37;3.97;;;24.50;51.60;;;;;;6263310;23;20378;-83
2021/08/18 01:45:46;;;;;;;6.07;4.90;;;24.50;51.60;;;;;;6238607;23;20378;-83
2021/08/18 01:48:13;;;;;;;7.03;5.40;;;24.50;51.60;;;;;;6238535;23;20380;-83
2021/08/18 01:50:43;;;;;;;5.70;4.63;;;24.50;51.60;;;;;;6239057;23;20362;-83
2021/08/18 01:53:10;;;;;;;5.93;5.30;;;24.50;51.60;;;;;;6239766;23;20378;-84
2021/08/18 01:55:38;;;;;;;5.10;4.60;;;24.50;51.60;;;;;;6238196;23;20381;-83
2021/08/18 01:58:05;;;;;;;6.60;5.73;;;24.50;51.60;;;;;;6213345;23;20379;-83
2021/08/18 02:00:31;;;;;;;6.93;5.20;;;24.50;51.70;;;;;;6239157;23;20363;-83
2021/08/18 02:02:57;;;;;;;6.40;5.17;;;24.50;51.80;;;;;;6239865;23;20378;-83
2021/08/18 02:05:22;;;;;;;5.53;4.53;;;24.50;51.70;;;;;;6211904;23;20387;-83
2021/08/18 02:07:51;;;;;;;6.57;4.77;;;24.50;51.70;;;;;;6209915;23;20131;-83
2021/08/18 02:10:18;;;;;;;6.20;5.07;;;24.50;51.70;;;;;;6182994;23;20238;-83
2021/08/18 02:12:44;;;;;;;6.07;4.60;;;24.50;51.80;;;;;;6182412;23;20423;-83
2021/08/18 02:15:16;;;;;;;5.20;4.50;;;24.50;51.70;;;;;;6209164;23;20367;-83
2021/08/18 02:17:45;;;;;;;6.73;4.80;;;24.50;51.80;;;;;;6208614;23;20483;-82
2021/08/18 02:20:18;;;;;;;7.30;4.37;;;24.50;51.80;;;;;;6182827;23;20398;-83
2021/08/18 02:22:44;;;;;;;5.90;4.70;;;24.50;52.40;;;;;;6183314;23;20393;-83
2021/08/18 02:25:11;;;;;;;6.27;4.80;;;24.50;51.90;;;;;;6208786;23;20370;-83
2021/08/18 02:27:37;;;;;;;6.97;4.10;;;24.50;51.80;;;;;;6209421;23;20371;-83
2021/08/18 02:30:04;;;;;;;5.97;4.90;;;24.50;51.90;;;;;;6209219;23;20374;-83
2021/08/18 02:32:30;;;;;;;4.83;4.30;;;24.50;51.90;;;;;;6182746;23;20427;-84
2021/08/18 02:34:56;;;;;;;5.03;4.50;;;24.50;52.00;;;;;;6182683;23;20386;-83
2021/08/18 02:37:22;;;;;;;4.83;4.33;;;24.50;52.00;;;;;;6182660;23;20390;-83
2021/08/18 02:39:47;;;;;;;4.40;4.00;;;24.50;52.00;;;;;;6183420;23;20155;-83
2021/08/18 02:42:13;;;;;;;4.53;3.77;;;24.40;51.90;;;;;;6182736;23;20163;-82
2021/08/18 02:44:39;;;;;;;6.57;4.97;;;24.40;51.90;;;;;;6208655;23;20163;-82
2021/08/18 02:47:05;;;;;;;4.93;4.43;;;24.50;52.00;;;;;;6184137;23;20189;-83
2021/08/18 02:49:31;;;;;;;5.60;4.30;;;24.40;51.90;;;;;;6209779;23;20166;-83
2021/08/18 02:51:57;;;;;;;5.00;4.40;;;24.40;52.00;;;;;;6209086;23;20442;-83
2021/08/18 02:54:24;;;;;;;4.97;4.20;;;24.40;52.00;;;;;;6183300;23;20207;-83
2021/08/18 02:56:51;;;;;;;6.07;4.50;;;24.50;52.00;;;;;;6210175;23;20160;-83
2021/08/18 02:59:17;;;;;;;6.40;4.77;;;24.40;52.00;;;;;;6183456;23;20372;-82
2021/08/18 03:01:42;;;;;;;5.37;4.50;;;24.40;51.90;;;;;;6211168;23;20390;-82
2021/08/18 03:04:08;;;;;;;5.40;4.20;;;24.40;52.00;;;;;;6210991;23;20163;-83
2021/08/18 03:06:34;;;;;;;5.90;4.80;;;24.40;52.00;;;;;;6211232;23;20148;-82
2021/08/18 03:09:00;;;;;;;4.97;4.10;;;24.40;52.00;;;;;;6184958;23;20198;-82
2021/08/18 03:11:29;;;;;;;5.30;4.50;;;24.40;52.00;;;;;;6185052;23;20426;-83
2021/08/18 03:13:54;;;;;;;5.33;4.83;;;24.40;52.00;;;;;;6210668;23;20191;-83
2021/08/18 03:16:20;;;;;;;5.33;4.27;;;24.40;52.10;;;;;;6185131;23;20386;-83
2021/08/18 03:18:46;;;;;;;6.30;4.53;;;24.40;52.10;;;;;;6210745;23;20140;-84
2021/08/18 03:21:12;;;;;;;5.30;4.00;;;24.40;52.10;;;;;;6211368;23;20170;-83
2021/08/18 03:23:37;;;;;;;5.43;4.87;;;24.40;52.10;;;;;;6184996;23;20171;-83
2021/08/18 03:26:03;;;;;;;4.90;4.10;;;24.40;52.10;;;;;;6209921;23;20211;-83
2021/08/18 03:28:29;;;;;;;5.07;4.40;;;24.40;52.10;;;;;;6210483;23;20171;-83
2021/08/18 03:30:55;;;;;;;5.60;4.23;;;24.40;52.10;;;;;;6210820;23;20148;-83
2021/08/18 03:33:21;;;;;;;4.27;3.80;;;24.40;52.70;;;;;;6210573;23;20148;-83
2021/08/18 03:35:47;;;;;;;6.00;4.30;;;24.40;52.20;;;;;;6210547;23;20385;-83
2021/08/18 03:38:13;;;;;;;5.17;4.30;;;24.40;52.10;;;;;;6184344;23;20488;-83
2021/08/18 03:40:39;;;;;;;5.20;3.90;;;24.40;52.20;;;;;;6184769;23;20152;-83
2021/08/18 03:43:05;;;;;;;4.97;3.83;;;24.40;52.20;;;;;;6210539;23;20498;-83
2021/08/18 03:45:31;;;;;;;5.77;4.70;;;24.40;52.30;;;;;;6211707;23;20347;-83
2021/08/18 03:47:57;;;;;;;5.07;4.40;;;24.40;52.20;;;;;;6185442;23;20158;-83
2021/08/18 03:50:23;;;;;;;5.20;4.20;;;24.40;52.20;;;;;;6210975;23;20144;-83
2021/08/18 03:52:48;;;;;;;5.10;4.37;;;24.40;52.20;;;;;;6185164;23;20180;-83
2021/08/18 03:55:15;;;;;;;4.63;4.07;;;24.40;52.30;;;;;;6184884;23;20379;-83
2021/08/18 03:57:40;;;;;;;4.67;3.67;;;24.40;52.20;;;;;;6184123;23;20160;-83
2021/08/18 04:00:13;;;;;;;4.40;3.90;;;24.40;52.30;;;;;;6211039;23;20377;-83
2021/08/18 04:02:39;;;;;;;5.73;3.80;;;24.40;52.80;;;;;;6184499;23;20154;-83
2021/08/18 04:05:06;;;;;;;5.33;4.33;;;24.40;52.30;;;;;;6227752;23;20464;-82
2021/08/18 04:07:38;;;;;;;5.47;3.90;;;24.40;52.30;;;;;;6238630;23;20378;-82
2021/08/18 04:10:06;;;;;;;5.20;4.63;;;24.40;52.30;;;;;;6264345;23;20370;-82
2021/08/18 04:19:19;;;;;;;4.37;3.87;;;24.40;52.40;;;;;;6119623;23;20486;-82
2021/08/18 04:21:45;;;;;;;4.73;4.07;;;24.30;52.40;;;;;;6120043;23;20386;-83
2021/08/18 04:24:13;;;;;;;4.40;3.80;;;24.30;52.40;;;;;;6120427;23;20213;-82
2021/08/18 04:26:38;;;;;;;4.10;3.60;;;24.30;52.40;;;;;;6119916;23;20164;-82
2021/08/18 04:29:04;;;;;;;4.00;3.60;;;24.40;52.50;;;;;;6118825;23;20417;-83
2021/08/18 04:31:30;;;;;;;5.97;4.53;;;24.30;52.40;;;;;;6119308;23;20201;-82
2021/08/18 04:33:59;;;;;;;4.47;3.90;;;24.40;52.50;;;;;;6119397;23;20393;-82
2021/08/18 04:36:25;;;;;;;4.67;3.73;;;24.40;52.50;;;;;;6119792;23;20381;-83
2021/08/18 04:38:51;;;;;;;4.90;4.10;;;24.40;52.50;;;;;;6120045;23;20366;-83
2021/08/18 04:41:17;;;;;;;5.87;3.93;;;24.40;52.40;;;;;;6119964;23;20213;-82
2021/08/18 04:43:45;;;;;;;4.50;3.63;;;24.40;52.40;;;;;;6120652;23;20216;-83
2021/08/18 04:46:11;;;;;;;5.27;3.97;;;24.40;52.40;;;;;;6119803;23;20570;-83
2021/08/18 04:48:37;;;;;;;3.30;3.00;;;24.40;52.30;;;;;;6120540;23;20366;-83
2021/08/18 04:51:03;;;;;;;3.67;3.10;;;24.40;52.40;;;;;;6120276;23;20256;-83
2021/08/18 04:53:29;;;;;;;5.73;3.90;;;24.40;52.30;;;;;;6236858;23;20154;-84
2021/08/18 04:55:54;;;;;;;3.43;3.07;;;24.50;52.40;;;;;;6264868;23;20154;-83
2021/08/18 04:58:23;;;;;;;5.00;4.13;;;24.50;52.40;;;;;;6240966;23;20371;-83
2021/08/18 05:00:49;;;;;;;5.00;3.90;;;24.50;52.40;;;;;;6240301;23;20147;-83
2021/08/18 05:03:15;;;;;;;4.70;3.73;;;24.50;52.30;;;;;;6237272;23;20393;-83
2021/08/18 05:05:41;;;;;;;4.30;3.50;;;24.50;52.30;;;;;;6209916;23;20197;-83
2021/08/18 05:08:08;;;;;;;4.10;3.37;;;24.50;51.90;;;;;;6184109;23;20375;-83
2021/08/18 05:10:38;;;;;;;4.27;3.87;;;24.50;52.30;;;;;;6159835;23;20410;-83
2021/08/18 05:13:06;;;;;;;4.90;3.63;;;24.50;52.30;;;;;;6210506;23;20422;-83
2021/08/18 05:15:32;;;;;;;3.80;3.13;;;24.50;52.30;;;;;;6210219;23;20364;-83
2021/08/18 05:17:58;;;;;;;4.20;3.33;;;24.50;52.30;;;;;;6184110;23;20392;-82
2021/08/18 05:20:27;;;;;;;3.73;3.30;;;24.50;52.30;;;;;;6184464;23;20155;-82
2021/08/18 05:22:53;;;;;;;3.60;3.30;;;24.50;52.30;;;;;;6209451;23;20178;-82
2021/08/18 05:25:19;;;;;;;6.37;4.27;;;24.50;52.30;;;;;;6209432;23;20379;-83
2021/08/18 05:27:48;;;;;;;6.20;3.87;;;24.50;52.30;;;;;;6183916;23;20179;-83
2021/08/18 05:30:21;;;;;;;5.00;3.87;;;24.50;52.30;;;;;;6184582;23;20686;-83
2021/08/18 05:32:47;;;;;;;4.00;3.60;;;24.50;52.30;;;;;;6183366;23;20447;-83
2021/08/18 05:35:14;;;;;;;3.60;3.30;;;24.50;52.30;;;;;;6183529;23;20439;-82
2021/08/18 05:37:41;;;;;;;4.90;3.43;;;24.50;52.30;;;;;;6184242;23;20152;-82
2021/08/18 05:40:07;;;;;;;5.10;4.17;;;24.50;52.30;;;;;;6210893;23;20397;-82
2021/08/18 05:42:34;;;;;;;3.60;2.87;;;24.50;52.30;;;;;;6184060;23;20382;-82
2021/08/18 05:45:01;;;;;;;4.27;3.30;;;24.50;52.30;;;;;;6203853;23;20371;-82
2021/08/18 05:47:29;;;;;;;6.90;3.77;;;24.60;52.40;;;;;;6203037;23;20375;-82
2021/08/18 05:49:57;;;;;;;3.10;2.63;;;24.50;52.30;;;;;;6177106;23;20391;-82
2021/08/18 05:52:23;;;;;;;4.27;3.50;;;24.60;52.40;;;;;;6176760;23;20426;-82
2021/08/18 05:54:49;;;;;;;4.90;3.70;;;24.50;52.40;;;;;;6176295;23;20478;-81
2021/08/18 05:57:15;;;;;;;4.50;3.93;;;24.50;52.30;;;;;;6177997;23;20152;-83
2021/08/18 05:59:40;;;;;;;4.07;3.53;;;24.60;52.40;;;;;;6203820;23;20174;-82
2021/08/18 06:02:06;;;;;;;3.20;2.77;;;24.50;52.40;;;;;;6204353;23;20159;-83
2021/08/18 06:04:32;;;;;;;3.70;2.70;;;24.50;52.40;;;;;;6207524;23;20487;-82
2021/08/18 06:06:58;;;;;;;3.90;3.20;;;24.60;52.50;;;;;;6232346;23;20389;-82
2021/08/18 06:09:23;;;;;;;4.70;3.23;;;24.50;52.40;;;;;;6258154;23;20250;-83
2021/08/18 06:11:49;;;;;;;3.67;3.20;;;24.50;52.40;;;;;;6233627;23;20182;-83
2021/08/18 06:14:15;;;;;;;4.53;3.40;;;24.50;52.40;;;;;;6233624;23;20179;-83
2021/08/18 06:16:40;;;;;;;4.10;3.70;;;24.50;52.40;;;;;;6258825;23;20158;-83
2021/08/18 06:19:06;;;;;;;4.47;3.67;;;24.50;52.40;;;;;;6233979;23;20178;-83
2021/08/18 06:21:32;;;;;;;3.77;2.90;;;24.50;52.40;;;;;;6236253;23;20154;-83
2021/08/18 06:24:13;;;;;;;6.37;3.00;;;24.50;52.40;;;;;;6235636;23;20171;-82
2021/08/18 06:26:38;;;;;;;4.50;3.20;;;24.50;52.40;;;;;;6259618;23;20165;-82
2021/08/18 06:29:04;;;;;;;4.57;3.23;;;24.50;52.40;;;;;;6235735;23;20393;-83
2021/08/18 06:31:30;;;;;;;3.80;3.17;;;24.50;52.40;;;;;;6234678;23;20171;-82
2021/08/18 06:33:55;;;;;;;4.33;2.93;;;24.50;52.40;;;;;;6258256;23;20158;-82
2021/08/18 06:36:21;;;;;;;3.23;2.93;;;24.60;52.50;;;;;;6233443;23;20578;-82
2021/08/18 06:38:46;;;;;;;4.40;3.17;;;24.60;52.50;;;;;;6233196;23;20154;-83
2021/08/18 06:41:12;;;;;;;2.87;2.50;;;24.60;52.50;;;;;;6233802;23;20173;-82
2021/08/18 06:43:40;;;;;;;3.50;3.07;;;24.60;52.50;;;;;;6257393;23;20151;-83
2021/08/18 06:46:06;;;;;;;2.63;2.40;;;24.60;52.50;;;;;;6232321;23;20151;-83
2021/08/18 06:48:32;;;;;;;3.57;2.50;;;24.60;52.50;;;;;;6236383;23;20441;-82
2021/08/18 06:50:57;;;;;;;3.53;3.13;;;24.60;52.50;;;;;;6238243;23;20162;-83
2021/08/18 06:53:23;;;;;;;3.63;2.70;;;24.60;52.50;;;;;;6239530;23;20165;-83
2021/08/18 06:55:49;;;;;;;4.40;3.40;;;24.60;52.50;;;;;;6241548;23;20174;-83
2021/08/18 06:58:23;;;;;;;3.43;2.93;;;24.60;52.50;;;;;;6267985;22;20147;-83
2021/08/18 07:00:49;;;;;;;3.40;2.40;;;24.60;53.00;;;;;;6244522;23;20153;-84
2021/08/18 07:03:14;;;;;;;4.23;2.87;;;24.60;52.50;;;;;;6267089;23;20394;-82
2021/08/18 07:05:40;;;;;;;2.70;2.40;;;24.60;52.50;;;;;;6214017;23;20136;-82
2021/08/18 07:08:06;;;;;;;3.50;2.73;;;24.60;52.50;;;;;;6187619;23;20149;-82
2021/08/18 07:10:31;;;;;;;3.70;2.77;;;24.60;52.50;;;;;;6188461;23;20140;-82
2021/08/18 07:13:00;;;;;;;3.50;3.20;;;24.60;52.40;;;;;;6213501;23;20160;-82
2021/08/18 07:15:25;;;;;;;2.80;2.30;;;24.60;52.40;;;;;;6213394;23;20167;-82
2021/08/18 07:17:54;;;;;;;3.03;2.73;;;24.60;52.40;;;;;;6212944;23;20395;-82
2021/08/18 07:20:20;;;;;;;3.80;2.90;;;24.60;52.40;;;;;;6210910;23;20148;-83
2021/08/18 07:22:45;;;;;;;2.87;2.30;;;24.60;52.40;;;;;;6209647;23;20371;-82
2021/08/18 07:25:14;;;;;;;3.10;2.47;;;24.60;52.40;;;;;;6183738;23;20159;-83
2021/08/18 07:27:40;;;;;;;3.13;2.60;;;24.60;52.40;;;;;;6181810;23;20247;-82
2021/08/18 07:30:07;;;;;;;3.37;2.43;;;24.60;52.40;;;;;;6206759;23;20371;-83
2021/08/18 07:32:33;;;;;;;3.20;2.70;;;24.60;52.40;;;;;;6205886;23;20179;-82
2021/08/18 07:34:58;;;;;;;3.83;2.70;;;24.60;52.40;;;;;;6177624;23;20445;-83
2021/08/18 07:37:25;;;;;;;3.07;2.40;;;24.60;52.40;;;;;;6203112;23;20453;-83
2021/08/18 07:40:05;;;;;;;3.50;2.80;;;24.60;52.40;;;;;;6176864;23;20461;-83
2021/08/18 07:42:31;;;;;;;3.03;2.63;;;24.60;52.40;;;;;;6102806;23;20371;-82
2021/08/18 07:44:56;;;;;;;3.17;2.77;;;24.60;52.40;;;;;;6176795;23;20404;-82
2021/08/18 07:47:23;;;;;;;3.13;2.83;;;24.60;52.40;;;;;;6204868;23;20156;-82
2021/08/18 07:49:49;;;;;;;2.90;2.00;;;24.60;52.40;;;;;;6179010;23;20167;-83
2021/08/18 07:52:14;;;;;;;2.70;2.40;;;24.70;52.50;;;;;;6179062;23;20743;-82
2021/08/18 07:54:40;;;;;;;2.57;1.90;;;24.70;52.50;;;;;;6178920;23;20160;-83
2021/08/18 07:57:07;;;;;;;3.27;2.60;;;24.70;52.50;;;;;;6204127;23;20144;-83
2021/08/18 07:59:33;;;;;;;2.53;2.33;;;24.70;52.50;;;;;;6178684;23;20152;-82
2021/08/18 08:02:02;;;;;;;2.80;2.40;;;24.70;52.50;;;;;;6180411;23;20477;-83
2021/08/18 08:04:28;;;;;;;2.33;2.03;;;24.70;52.50;;;;;;6208728;23;20174;-82
2021/08/18 08:06:53;;;;;;;3.20;2.40;;;24.70;52.50;;;;;;6234471;23;20382;-82
2021/08/18 08:09:24;;;;;;;3.50;2.70;;;24.70;52.50;;;;;;6260854;23;20162;-82
2021/08/18 08:11:50;;;;;;;2.90;2.37;;;24.70;52.50;;;;;;6236379;23;20166;-82
2021/08/18 08:14:18;;;;;;;3.33;3.00;;;24.70;52.60;;;;;;6238105;23;20370;-82
2021/08/18 08:16:44;;;;;;;2.73;2.40;;;24.60;52.50;;;;;;6263002;23;20155;-82
2021/08/18 08:19:09;;;;;;;2.87;2.10;;;24.70;52.60;;;;;;6238616;23;20485;-82
2021/08/18 08:21:35;;;;;;;2.73;2.30;;;24.70;52.60;;;;;;6237850;23;20155;-82
2021/08/18 08:24:13;;;;;;;3.30;2.30;;;24.70;52.60;;;;;;6236247;23;20233;-82
2021/08/18 08:26:39;;;;;;;2.50;2.23;;;24.70;52.70;;;;;;6235959;23;20409;-82
2021/08/18 08:29:05;;;;;;;3.03;2.27;;;24.70;52.70;;;;;;6237763;23;20386;-82
2021/08/18 08:31:31;;;;;;;2.33;2.13;;;24.70;52.70;;;;;;6236886;23;20189;-82
2021/08/18 08:34:00;;;;;;;2.77;2.27;;;24.70;52.70;;;;;;6234028;23;20151;-82
2021/08/18 08:36:26;;;;;;;2.40;2.20;;;24.70;52.70;;;;;;6233352;23;20383;-82
2021/08/18 08:38:52;;;;;;;2.93;2.33;;;24.70;52.70;;;;;;6233722;23;20522;-82
2021/08/18 08:41:25;;;;;;;2.47;2.23;;;24.70;52.70;;;;;;6258891;23;20489;-83
2021/08/18 08:43:52;;;;;;;2.57;2.37;;;24.70;52.70;;;;;;6258639;23;20158;-83
2021/08/18 08:46:21;;;;;;;2.30;2.10;;;24.70;52.70;;;;;;6259045;23;20406;-82
2021/08/18 08:48:47;;;;;;;2.33;2.13;;;24.70;52.80;;;;;;6233566;23;20386;-82
2021/08/18 08:51:14;;;;;;;2.83;2.00;;;24.70;52.80;;;;;;6233287;23;20476;-83
2021/08/18 08:53:40;;;;;;;3.20;2.33;;;24.60;52.70;;;;;;6232860;23;20378;-83
2021/08/18 08:56:29;;;;;;;2.77;2.47;;;24.70;52.80;;;;;;6258948;23;20390;-82
2021/08/18 08:58:55;;;;;;;2.80;2.23;;;24.70;52.80;;;;;;6233772;23;20234;-82
2021/08/18 09:01:24;;;;;;;2.10;1.90;;;24.60;52.80;;;;;;6235302;23;20389;-82
2021/08/18 09:03:52;;;;;;;2.27;1.97;;;24.60;52.80;;;;;;6259364;23;20175;-82
2021/08/18 09:06:21;;;;;;;2.30;1.70;;;24.70;52.90;;;;;;6236189;23;20402;-82
2021/08/18 09:08:49;;;;;;;2.70;2.20;;;24.60;52.90;;;;;;6234908;23;20451;-82
2021/08/18 09:11:17;;;;;;;2.97;2.20;;;24.60;52.90;;;;;;6236742;23;20421;-83
2021/08/18 09:14:25;;;;;;;1.90;1.70;;;24.60;52.90;;;;;;6236523;23;20378;-83
2021/08/18 09:16:51;;;;;;;2.07;1.83;;;24.70;52.90;;;;;;6228476;23;20386;-82
2021/08/18 09:19:17;;;;;;;2.13;1.90;;;24.60;53.00;;;;;;6237561;23;20381;-83
2021/08/18 09:21:43;;;;;;;2.13;1.90;;;24.60;52.90;;;;;;6235933;23;20173;-83
2021/08/18 09:24:58;;;;;;;;;;;;;;;;;;;;;
2021/08/18 09:27:38;;;;;;;2.40;1.90;;;24.60;52.90;;;;;;6235841;23;20386;-83
2021/08/18 09:36:49;;;;;;;2.03;1.77;;;24.60;53.10;;;;;;6234367;23;20879;-82
2021/08/18 09:56:07;;;;;;;1.77;1.67;;;24.50;53.30;;;;;;6032405;23;20371;-81
2021/08/18 09:58:51;;;;;;;2.10;1.90;;;24.50;53.40;;;;;;6009220;23;20414;-82
2021/08/18 10:01:18;;;;;;;2.27;1.70;;;24.50;53.40;;;;;;6009624;23;20397;-81
2021/08/18 10:03:49;;;;;;;2.30;1.87;;;24.50;53.40;;;;;;6032895;23;20412;-82
2021/08/18 10:06:16;;;;;;;2.87;2.00;;;24.50;53.40;;;;;;6010384;23;20461;-82
2021/08/18 10:12:20;;;;;;;2.20;2.00;;;24.60;53.40;;;;;;6019598;23;20439;-82
2021/08/18 10:14:51;;;;;;;2.50;2.23;;;24.50;53.40;;;;;;5952451;24;20472;-82
2021/08/18 10:17:29;;;;;;;1.73;1.63;;;24.50;53.40;;;;;;5952703;24;20391;-81
2021/08/18 10:19:59;;;;;;;3.07;2.10;;;24.50;53.40;;;;;;6020954;23;20384;-82
2021/08/18 10:22:29;;;;;;;2.43;1.90;;;24.50;53.40;;;;;;6031985;23;20387;-82
2021/08/18 10:27:57;;;;;;;2.10;1.70;;;24.60;53.50;;;;;;6033371;23;20379;-82
2021/08/18 10:30:27;;;;;;;2.00;1.57;;;24.50;53.50;;;;;;6009404;23;20456;-81
2021/08/18 10:33:04;;;;;;;1.83;1.60;;;24.50;53.50;;;;;;6031991;23;20460;-81
2021/08/18 10:36:10;;;;;;;2.33;1.70;;;24.60;53.60;;;;;;6008705;23;20383;-82
2021/08/18 10:38:37;;;;;;;2.63;1.60;;;24.60;53.60;;;;;;5980448;24;20395;-81
2021/08/18 10:41:03;;;;;;;1.90;1.63;;;24.50;53.60;;;;;;6003713;24;20959;-81
2021/08/18 10:43:59;;;;;;;2.30;1.80;;;24.50;53.60;;;;;;6000092;24;20381;-82
2021/08/18 10:46:27;;;;;;;1.70;1.60;;;24.60;53.70;;;;;;6004840;24;20390;-82
2021/08/18 10:49:04;;;;;;;2.00;1.70;;;24.50;53.60;;;;;;6004875;24;20464;-82
2021/08/18 10:52:12;;;;;;;1.40;1.30;;;24.60;53.70;;;;;;6064415;23;20425;-81
2021/08/18 10:54:45;;;;;;;1.80;1.37;;;24.60;53.70;;;;;;6033091;23;20415;-81
2021/08/18 10:57:52;;;;;;;2.00;1.70;;;24.60;53.70;;;;;;6055441;23;20369;-82
2021/08/18 11:00:41;;;;;;;1.80;1.70;;;24.60;53.70;;;;;;6003844;24;20377;-81
2021/08/18 11:03:27;;;;;;;1.63;1.53;;;24.60;53.70;;;;;;6004581;23;20437;-81
2021/08/18 11:05:58;;;;;;;1.93;1.77;;;24.60;53.80;;;;;;6004719;24;20397;-82
2021/08/18 11:08:38;;;;;;;1.60;1.43;;;24.60;53.80;;;;;;6003691;23;20382;-81
2021/08/18 11:11:06;;;;;;;1.80;1.60;;;24.60;53.80;;;;;;6004442;23;20441;-82
2021/08/18 11:17:22;;;;;;;1.90;1.70;;;24.60;53.80;;;;;;6032252;23;20416;-81
2021/08/18 11:19:54;;;;;;;1.20;1.10;;;24.60;53.90;;;;;;6031890;23;20385;-81
2021/08/18 11:22:23;;;;;;;1.37;1.27;;;24.60;53.80;;;;;;6033801;23;20476;-81
2021/08/18 11:24:49;;;;;;;1.50;1.23;;;24.60;53.90;;;;;;6032904;23;20372;-82
2021/08/18 11:27:21;;;;;;;1.40;1.30;;;24.60;53.90;;;;;;6032838;23;20399;-82
2021/08/18 11:29:49;;;;;;;2.17;1.50;;;24.60;53.80;;;;;;6057445;23;20532;-81
2021/08/18 11:32:24;;;;;;;1.43;1.33;;;24.60;53.80;;;;;;6148584;23;20473;-81
2021/08/18 11:34:51;;;;;;;2.03;1.33;;;24.60;53.80;;;;;;6124867;23;20414;-82
2021/08/18 11:37:32;;;;;;;1.30;1.20;;;24.60;53.80;;;;;;6124709;23;20385;-82
2021/08/18 11:39:59;;;;;;;1.43;1.33;;;24.60;53.80;;;;;;6149503;23;20356;-82
2021/08/18 11:42:30;;;;;;;1.60;1.50;;;24.60;53.80;;;;;;6148738;23;20388;-82
2021/08/18 11:45:15;;;;;;;1.50;1.40;;;24.60;53.80;;;;;;6125521;23;20412;-81
2021/08/18 11:47:46;;;;;;;1.30;1.10;;;24.70;53.90;;;;;;6198460;23;20369;-82
2021/08/18 11:50:13;;;;;;;1.60;1.43;;;24.60;53.80;;;;;;6264548;23;20437;-82
2021/08/18 11:52:40;;;;;;;1.30;1.20;;;24.60;53.90;;;;;;6239908;23;20425;-82
2021/08/18 11:55:07;;;;;;;1.70;1.50;;;24.60;54.40;;;;;;6242451;23;20422;-82
2021/08/18 11:57:34;;;;;;;1.60;1.20;;;24.70;53.90;;;;;;6240035;23;20366;-82
2021/08/18 12:00:05;;;;;;;1.30;1.10;;;24.70;53.90;;;;;;6241054;23;20367;-82
2021/08/18 12:02:36;;;;;;;1.60;1.43;;;24.70;53.90;;;;;;6241762;23;20422;-82
2021/08/18 12:05:04;;;;;;;1.50;1.20;;;24.70;53.90;;;;;;6239661;23;20408;-81
2021/08/18 12:07:32;;;;;;;1.70;1.60;;;24.70;53.90;;;;;;6239269;23;20379;-81
2021/08/18 12:10:26;;;;;;;1.60;1.50;;;24.70;53.90;;;;;;6238638;23;20386;-81
2021/08/18 12:13:07;;;;;;;1.20;1.10;;;24.70;53.80;;;;;;6238553;23;20449;-81
2021/08/18 12:15:41;;;;;;;1.87;1.50;;;24.70;54.40;;;;;;6239732;23;20378;-81
2021/08/18 12:18:37;;;;;;;1.50;1.40;;;24.60;53.80;;;;;;6240452;23;20350;-81
2021/08/18 12:21:38;;;;;;;1.87;1.40;;;24.70;53.90;;;;;;6241035;23;20359;-82
2021/08/18 12:24:21;;;;;;;1.40;1.30;;;24.60;53.70;;;;;;6264548;23;20801;-83
2021/08/18 12:27:07;;;;;;;3.90;1.53;;;24.60;53.70;;;;;;6240023;23;20350;-82
2021/08/18 12:29:37;;;;;;;1.60;1.43;;;24.60;53.70;;;;;;6235160;23;20373;-82
2021/08/18 12:32:11;;;;;;;1.90;1.70;;;24.60;53.80;;;;;;6238581;23;20426;-82
2021/08/18 12:34:57;;;;;;;1.63;1.47;;;24.60;53.80;;;;;;6237801;23;20382;-82
2021/08/18 12:37:35;;;;;;;2.20;1.40;;;24.60;53.70;;;;;;6239947;23;20339;-81
2021/08/18 12:40:23;;;;;;;1.47;1.37;;;24.60;53.70;;;;;;6238970;23;20327;-83
2021/08/18 12:43:02;;;;;;;1.20;1.10;;;24.60;53.70;;;;;;6239031;23;20398;-82
2021/08/18 12:45:34;;;;;;;1.53;1.30;;;24.60;53.70;;;;;;6240243;23;20382;-82
2021/08/18 12:48:03;;;;;;;1.80;1.40;;;24.60;53.70;;;;;;6240293;23;20357;-82
2021/08/18 12:50:47;;;;;;;1.37;1.27;;;24.60;53.70;;;;;;6240676;23;20377;-81
2021/08/18 12:53:25;;;;;;;1.67;1.37;;;24.60;53.70;;;;;;6240711;23;20359;-82
2021/08/18 12:55:52;;;;;;;1.50;1.40;;;24.60;53.70;;;;;;6240212;23;20450;-82
2021/08/18 12:58:24;;;;;;;1.80;1.13;;;24.60;53.70;;;;;;6265302;23;20405;-82
2021/08/18 13:00:57;;;;;;;1.73;1.60;;;24.60;53.70;;;;;;6214750;23;20378;-81
2021/08/18 13:03:25;;;;;;;2.20;1.60;;;24.60;53.70;;;;;;6240116;23;20377;-81
2021/08/18 13:05:50;;;;;;;1.33;1.23;;;24.60;53.70;;;;;;6238761;23;20406;-81
2021/08/18 13:08:19;;;;;;;1.50;1.30;;;24.60;53.70;;;;;;6263613;23;20409;-82
2021/08/18 13:10:47;;;;;;;1.40;1.30;;;24.60;53.70;;;;;;6239180;23;20394;-81
2021/08/18 13:13:13;;;;;;;1.43;1.33;;;24.60;53.70;;;;;;6238632;23;20418;-81
2021/08/18 13:15:43;;;;;;;1.40;1.30;;;24.60;53.70;;;;;;6238765;23;20392;-82
2021/08/18 13:18:11;;;;;;;1.53;1.43;;;24.60;53.70;;;;;;6238627;23;20157;-82
2021/08/18 13:20:38;;;;;;;1.33;1.23;;;24.60;53.70;;;;;;6239638;23;20359;-82
2021/08/18 13:23:04;;;;;;;1.30;1.20;;;24.60;53.70;;;;;;6238224;23;20402;-81
2021/08/18 13:25:33;;;;;;;1.50;1.33;;;24.60;53.70;;;;;;6238514;23;20382;-81
2021/08/18 13:28:02;;;;;;;1.60;1.40;;;24.60;53.70;;;;;;6239970;23;20354;-81
2021/08/18 13:30:32;;;;;;;1.40;1.30;;;24.60;53.80;;;;;;6239007;23;20441;-81
2021/08/18 13:32:58;;;;;;;1.40;1.20;;;24.60;53.70;;;;;;6212673;23;20481;-80
2021/08/18 13:35:29;;;;;;;1.40;1.20;;;24.60;53.80;;;;;;6264069;23;20409;-81
2021/08/18 13:37:58;;;;;;;1.50;1.30;;;24.60;53.80;;;;;;6213471;23;20155;-81